sensor_id;sensor_type;location;lat;lon;timestamp;P1;durP1;ratioP1;P2;durP2;ratioP2
73575;SDS011;61859;49.204;8.140;2023-06-05T00:02:10;1.80;;;1.60;;
73575;SDS011;61859;49.204;8.140;2023-06-05T00:04:36;1.50;;;1.23;;
73575;SDS011;61859;49.204;8.140;2023-06-05T00:07:01;1.73;;;1.40;;
73575;SDS011;61859;49.204;8.140;2023-06-05T00:09:27;4.40;;;1.60;;
73575;SDS011;61859;49.204;8.140;2023-06-05T00:11:53;2.47;;;1.60;;
73575;SDS011;61859;49.204;8.140;2023-06-05T00:14:19;1.77;;;1.20;;
73575;SDS011;61859;49.204;8.140;2023-06-05T00:16:44;1.50;;;1.13;;
73575;SDS011;61859;49.204;8.140;2023-06-05T00:19:10;2.00;;;1.30;;
73575;SDS011;61859;49.204;8.140;2023-06-05T00:21:35;2.67;;;1.73;;
73575;SDS011;61859;49.204;8.140;2023-06-05T00:24:01;1.90;;;1.30;;
73575;SDS011;61859;49.204;8.140;2023-06-05T00:26:26;1.43;;;1.33;;
73575;SDS011;61859;49.204;8.140;2023-06-05T00:28:52;1.37;;;1.27;;
73575;SDS011;61859;49.204;8.140;2023-06-05T00:31:17;2.70;;;1.67;;
73575;SDS011;61859;49.204;8.140;2023-06-05T00:33:43;1.70;;;1.60;;
73575;SDS011;61859;49.204;8.140;2023-06-05T00:36:09;1.73;;;1.43;;
73575;SDS011;61859;49.204;8.140;2023-06-05T00:38:36;1.73;;;1.37;;
73575;SDS011;61859;49.204;8.140;2023-06-05T00:41:01;1.50;;;1.40;;
73575;SDS011;61859;49.204;8.140;2023-06-05T00:43:27;3.83;;;1.60;;
73575;SDS011;61859;49.204;8.140;2023-06-05T00:45:54;1.90;;;1.57;;
73575;SDS011;61859;49.204;8.140;2023-06-05T00:48:24;2.83;;;1.50;;
73575;SDS011;61859;49.204;8.140;2023-06-05T00:50:50;4.30;;;1.80;;
73575;SDS011;61859;49.204;8.140;2023-06-05T00:53:16;2.17;;;1.47;;
73575;SDS011;61859;49.204;8.140;2023-06-05T00:55:41;1.50;;;1.40;;
73575;SDS011;61859;49.204;8.140;2023-06-05T00:58:07;1.03;;;0.93;;
73575;SDS011;61859;49.204;8.140;2023-06-05T01:00:34;2.03;;;1.40;;
73575;SDS011;61859;49.204;8.140;2023-06-05T01:03:01;1.40;;;1.30;;
73575;SDS011;61859;49.204;8.140;2023-06-05T01:05:27;3.60;;;1.33;;
73575;SDS011;61859;49.204;8.140;2023-06-05T01:07:53;4.47;;;1.43;;
73575;SDS011;61859;49.204;8.140;2023-06-05T01:10:19;1.50;;;1.33;;
73575;SDS011;61859;49.204;8.140;2023-06-05T01:15:20;1.77;;;1.50;;
73575;SDS011;61859;49.204;8.140;2023-06-05T01:17:54;1.70;;;1.53;;
73575;SDS011;61859;49.204;8.140;2023-06-05T01:20:21;2.10;;;1.63;;
73575;SDS011;61859;49.204;8.140;2023-06-05T01:22:50;1.23;;;1.13;;
73575;SDS011;61859;49.204;8.140;2023-06-05T01:25:17;2.30;;;1.43;;
73575;SDS011;61859;49.204;8.140;2023-06-05T01:30:27;4.27;;;1.93;;
73575;SDS011;61859;49.204;8.140;2023-06-05T01:33:02;1.67;;;1.40;;
73575;SDS011;61859;49.204;8.140;2023-06-05T01:35:32;1.50;;;1.10;;
73575;SDS011;61859;49.204;8.140;2023-06-05T01:37:59;2.40;;;1.23;;
73575;SDS011;61859;49.204;8.140;2023-06-05T01:40:28;1.43;;;1.33;;
73575;SDS011;61859;49.204;8.140;2023-06-05T01:42:55;1.20;;;1.10;;
73575;SDS011;61859;49.204;8.140;2023-06-05T01:45:21;1.40;;;1.30;;
73575;SDS011;61859;49.204;8.140;2023-06-05T01:47:47;2.00;;;1.30;;
73575;SDS011;61859;49.204;8.140;2023-06-05T01:50:13;3.87;;;1.30;;
73575;SDS011;61859;49.204;8.140;2023-06-05T01:52:40;1.77;;;1.20;;
73575;SDS011;61859;49.204;8.140;2023-06-05T01:55:09;1.47;;;1.37;;
73575;SDS011;61859;49.204;8.140;2023-06-05T01:57:40;3.03;;;1.77;;
73575;SDS011;61859;49.204;8.140;2023-06-05T02:00:06;1.90;;;1.50;;
73575;SDS011;61859;49.204;8.140;2023-06-05T02:02:37;2.00;;;1.47;;
73575;SDS011;61859;49.204;8.140;2023-06-05T02:05:06;3.30;;;1.27;;
73575;SDS011;61859;49.204;8.140;2023-06-05T02:07:32;1.70;;;1.50;;
73575;SDS011;61859;49.204;8.140;2023-06-05T02:09:58;1.27;;;1.17;;
73575;SDS011;61859;49.204;8.140;2023-06-05T02:12:30;1.40;;;1.30;;
73575;SDS011;61859;49.204;8.140;2023-06-05T02:14:56;4.90;;;1.30;;
73575;SDS011;61859;49.204;8.140;2023-06-05T02:17:21;1.40;;;1.30;;
73575;SDS011;61859;49.204;8.140;2023-06-05T02:19:49;4.13;;;1.63;;
73575;SDS011;61859;49.204;8.140;2023-06-05T02:22:15;1.53;;;1.40;;
73575;SDS011;61859;49.204;8.140;2023-06-05T02:24:41;1.57;;;1.30;;
73575;SDS011;61859;49.204;8.140;2023-06-05T02:27:07;1.23;;;1.13;;
73575;SDS011;61859;49.204;8.140;2023-06-05T02:29:35;1.30;;;1.20;;
73575;SDS011;61859;49.204;8.140;2023-06-05T02:32:04;1.77;;;1.23;;
73575;SDS011;61859;49.204;8.140;2023-06-05T02:34:31;1.77;;;1.40;;
73575;SDS011;61859;49.204;8.140;2023-06-05T02:36:57;1.57;;;1.20;;
73575;SDS011;61859;49.204;8.140;2023-06-05T02:39:23;2.03;;;1.43;;
73575;SDS011;61859;49.204;8.140;2023-06-05T02:41:49;1.47;;;1.30;;
73575;SDS011;61859;49.204;8.140;2023-06-05T02:44:14;2.07;;;1.30;;
73575;SDS011;61859;49.204;8.140;2023-06-05T02:46:40;1.77;;;1.30;;
73575;SDS011;61859;49.204;8.140;2023-06-05T02:49:06;2.40;;;1.47;;
73575;SDS011;61859;49.204;8.140;2023-06-05T02:51:31;1.57;;;1.10;;
73575;SDS011;61859;49.204;8.140;2023-06-05T02:53:57;2.60;;;1.30;;
73575;SDS011;61859;49.204;8.140;2023-06-05T02:56:22;1.30;;;1.17;;
73575;SDS011;61859;49.204;8.140;2023-06-05T02:58:52;3.07;;;1.77;;
73575;SDS011;61859;49.204;8.140;2023-06-05T03:01:17;4.53;;;1.70;;
73575;SDS011;61859;49.204;8.140;2023-06-05T03:03:44;1.20;;;1.10;;
73575;SDS011;61859;49.204;8.140;2023-06-05T03:06:09;1.20;;;1.10;;
73575;SDS011;61859;49.204;8.140;2023-06-05T03:08:36;1.17;;;1.07;;
73575;SDS011;61859;49.204;8.140;2023-06-05T03:11:03;2.40;;;1.23;;
73575;SDS011;61859;49.204;8.140;2023-06-05T03:13:29;2.13;;;1.43;;
73575;SDS011;61859;49.204;8.140;2023-06-05T03:15:56;1.43;;;1.10;;
73575;SDS011;61859;49.204;8.140;2023-06-05T03:18:24;2.37;;;1.10;;
73575;SDS011;61859;49.204;8.140;2023-06-05T03:20:50;1.67;;;1.00;;
73575;SDS011;61859;49.204;8.140;2023-06-05T03:23:23;1.43;;;1.20;;
73575;SDS011;61859;49.204;8.140;2023-06-05T03:25:49;1.00;;;0.87;;
73575;SDS011;61859;49.204;8.140;2023-06-05T03:28:16;0.77;;;0.77;;
73575;SDS011;61859;49.204;8.140;2023-06-05T03:30:42;2.63;;;1.33;;
73575;SDS011;61859;49.204;8.140;2023-06-05T03:33:08;4.03;;;1.00;;
73575;SDS011;61859;49.204;8.140;2023-06-05T03:35:34;1.60;;;1.17;;
73575;SDS011;61859;49.204;8.140;2023-06-05T03:38:00;1.20;;;1.10;;
73575;SDS011;61859;49.204;8.140;2023-06-05T03:40:26;1.60;;;1.20;;
73575;SDS011;61859;49.204;8.140;2023-06-05T03:42:51;2.23;;;1.27;;
73575;SDS011;61859;49.204;8.140;2023-06-05T03:45:17;3.53;;;1.40;;
73575;SDS011;61859;49.204;8.140;2023-06-05T03:47:43;1.37;;;1.27;;
73575;SDS011;61859;49.204;8.140;2023-06-05T03:50:10;2.00;;;1.10;;
73575;SDS011;61859;49.204;8.140;2023-06-05T03:52:37;1.30;;;1.20;;
73575;SDS011;61859;49.204;8.140;2023-06-05T03:55:04;1.07;;;1.00;;
73575;SDS011;61859;49.204;8.140;2023-06-05T03:57:32;1.67;;;1.40;;
73575;SDS011;61859;49.204;8.140;2023-06-05T03:59:58;3.07;;;1.20;;
73575;SDS011;61859;49.204;8.140;2023-06-05T04:02:24;6.20;;;1.33;;
73575;SDS011;61859;49.204;8.140;2023-06-05T04:04:50;1.03;;;1.03;;
73575;SDS011;61859;49.204;8.140;2023-06-05T04:07:16;3.13;;;1.10;;
73575;SDS011;61859;49.204;8.140;2023-06-05T04:09:42;3.37;;;1.20;;
73575;SDS011;61859;49.204;8.140;2023-06-05T04:12:07;1.40;;;1.27;;
73575;SDS011;61859;49.204;8.140;2023-06-05T04:14:35;1.37;;;1.20;;
73575;SDS011;61859;49.204;8.140;2023-06-05T04:17:01;1.50;;;1.20;;
73575;SDS011;61859;49.204;8.140;2023-06-05T04:19:27;1.53;;;0.90;;
73575;SDS011;61859;49.204;8.140;2023-06-05T04:21:53;1.20;;;0.87;;
73575;SDS011;61859;49.204;8.140;2023-06-05T04:24:19;1.97;;;1.40;;
73575;SDS011;61859;49.204;8.140;2023-06-05T04:26:44;1.77;;;1.03;;
73575;SDS011;61859;49.204;8.140;2023-06-05T04:29:10;2.07;;;1.10;;
73575;SDS011;61859;49.204;8.140;2023-06-05T04:31:44;1.20;;;0.93;;
73575;SDS011;61859;49.204;8.140;2023-06-05T04:34:11;1.70;;;1.30;;
73575;SDS011;61859;49.204;8.140;2023-06-05T04:36:37;1.30;;;1.20;;
73575;SDS011;61859;49.204;8.140;2023-06-05T04:39:03;4.20;;;1.27;;
73575;SDS011;61859;49.204;8.140;2023-06-05T04:41:30;2.33;;;1.73;;
73575;SDS011;61859;49.204;8.140;2023-06-05T04:43:57;1.80;;;1.17;;
73575;SDS011;61859;49.204;8.140;2023-06-05T04:46:24;1.13;;;1.03;;
73575;SDS011;61859;49.204;8.140;2023-06-05T04:48:51;2.57;;;2.37;;
73575;SDS011;61859;49.204;8.140;2023-06-05T04:51:20;3.87;;;1.13;;
73575;SDS011;61859;49.204;8.140;2023-06-05T04:53:47;0.93;;;0.93;;
73575;SDS011;61859;49.204;8.140;2023-06-05T04:56:15;1.93;;;1.27;;
73575;SDS011;61859;49.204;8.140;2023-06-05T04:58:41;1.87;;;1.37;;
73575;SDS011;61859;49.204;8.140;2023-06-05T05:01:07;1.40;;;1.30;;
73575;SDS011;61859;49.204;8.140;2023-06-05T05:03:33;1.57;;;1.37;;
73575;SDS011;61859;49.204;8.140;2023-06-05T05:05:59;1.10;;;1.00;;
73575;SDS011;61859;49.204;8.140;2023-06-05T05:08:25;1.87;;;1.10;;
73575;SDS011;61859;49.204;8.140;2023-06-05T05:10:52;1.40;;;1.20;;
73575;SDS011;61859;49.204;8.140;2023-06-05T05:13:18;0.80;;;0.80;;
73575;SDS011;61859;49.204;8.140;2023-06-05T05:15:44;4.53;;;1.07;;
73575;SDS011;61859;49.204;8.140;2023-06-05T05:18:10;1.53;;;0.97;;
73575;SDS011;61859;49.204;8.140;2023-06-05T05:20:35;1.23;;;1.10;;
73575;SDS011;61859;49.204;8.140;2023-06-05T05:23:01;1.33;;;1.20;;
73575;SDS011;61859;49.204;8.140;2023-06-05T05:25:26;3.23;;;1.30;;
73575;SDS011;61859;49.204;8.140;2023-06-05T05:27:52;1.73;;;1.37;;
73575;SDS011;61859;49.204;8.140;2023-06-05T05:30:18;1.20;;;1.03;;
73575;SDS011;61859;49.204;8.140;2023-06-05T05:32:44;2.73;;;1.03;;
73575;SDS011;61859;49.204;8.140;2023-06-05T05:35:09;1.80;;;1.37;;
73575;SDS011;61859;49.204;8.140;2023-06-05T05:37:35;1.20;;;1.00;;
73575;SDS011;61859;49.204;8.140;2023-06-05T05:40:00;3.10;;;0.90;;
73575;SDS011;61859;49.204;8.140;2023-06-05T05:42:28;1.80;;;1.00;;
73575;SDS011;61859;49.204;8.140;2023-06-05T05:44:53;4.80;;;0.83;;
73575;SDS011;61859;49.204;8.140;2023-06-05T05:47:19;6.30;;;1.10;;
73575;SDS011;61859;49.204;8.140;2023-06-05T05:49:45;1.33;;;1.10;;
73575;SDS011;61859;49.204;8.140;2023-06-05T05:52:10;3.20;;;1.07;;
73575;SDS011;61859;49.204;8.140;2023-06-05T05:54:36;1.20;;;1.10;;
73575;SDS011;61859;49.204;8.140;2023-06-05T05:57:01;2.10;;;1.00;;
73575;SDS011;61859;49.204;8.140;2023-06-05T05:59:28;1.50;;;0.90;;
73575;SDS011;61859;49.204;8.140;2023-06-05T06:01:54;1.93;;;1.10;;
73575;SDS011;61859;49.204;8.140;2023-06-05T06:04:21;1.10;;;1.00;;
73575;SDS011;61859;49.204;8.140;2023-06-05T06:06:46;1.20;;;1.10;;
73575;SDS011;61859;49.204;8.140;2023-06-05T06:09:17;1.17;;;1.07;;
73575;SDS011;61859;49.204;8.140;2023-06-05T06:11:43;2.37;;;1.33;;
73575;SDS011;61859;49.204;8.140;2023-06-05T06:14:09;2.97;;;1.20;;
73575;SDS011;61859;49.204;8.140;2023-06-05T06:16:36;1.80;;;1.20;;
73575;SDS011;61859;49.204;8.140;2023-06-05T06:19:02;1.40;;;0.90;;
73575;SDS011;61859;49.204;8.140;2023-06-05T06:21:28;1.10;;;1.00;;
73575;SDS011;61859;49.204;8.140;2023-06-05T06:23:54;1.87;;;1.30;;
73575;SDS011;61859;49.204;8.140;2023-06-05T06:26:19;2.97;;;1.20;;
73575;SDS011;61859;49.204;8.140;2023-06-05T06:28:46;2.00;;;1.30;;
73575;SDS011;61859;49.204;8.140;2023-06-05T06:31:12;1.83;;;1.27;;
73575;SDS011;61859;49.204;8.140;2023-06-05T06:33:38;2.03;;;1.20;;
73575;SDS011;61859;49.204;8.140;2023-06-05T06:36:04;1.63;;;1.20;;
73575;SDS011;61859;49.204;8.140;2023-06-05T06:38:29;1.47;;;1.37;;
73575;SDS011;61859;49.204;8.140;2023-06-05T06:40:57;2.13;;;1.10;;
73575;SDS011;61859;49.204;8.140;2023-06-05T06:43:23;1.20;;;1.10;;
73575;SDS011;61859;49.204;8.140;2023-06-05T06:45:49;5.53;;;1.50;;
73575;SDS011;61859;49.204;8.140;2023-06-05T06:48:15;1.43;;;1.00;;
73575;SDS011;61859;49.204;8.140;2023-06-05T06:50:45;1.53;;;1.03;;
73575;SDS011;61859;49.204;8.140;2023-06-05T06:53:10;1.47;;;1.20;;
73575;SDS011;61859;49.204;8.140;2023-06-05T06:55:36;3.93;;;1.20;;
73575;SDS011;61859;49.204;8.140;2023-06-05T06:58:02;1.80;;;1.17;;
73575;SDS011;61859;49.204;8.140;2023-06-05T07:00:28;3.07;;;1.23;;
73575;SDS011;61859;49.204;8.140;2023-06-05T07:02:54;3.03;;;1.10;;
73575;SDS011;61859;49.204;8.140;2023-06-05T07:05:19;1.80;;;1.23;;
73575;SDS011;61859;49.204;8.140;2023-06-05T07:07:45;0.87;;;0.87;;
73575;SDS011;61859;49.204;8.140;2023-06-05T07:10:11;1.20;;;1.00;;
73575;SDS011;61859;49.204;8.140;2023-06-05T07:12:37;1.93;;;1.30;;
73575;SDS011;61859;49.204;8.140;2023-06-05T07:15:02;2.37;;;1.13;;
73575;SDS011;61859;49.204;8.140;2023-06-05T07:17:28;2.17;;;1.10;;
73575;SDS011;61859;49.204;8.140;2023-06-05T07:19:55;2.23;;;1.20;;
73575;SDS011;61859;49.204;8.140;2023-06-05T07:22:22;3.10;;;1.30;;
73575;SDS011;61859;49.204;8.140;2023-06-05T07:24:49;1.57;;;1.20;;
73575;SDS011;61859;49.204;8.140;2023-06-05T07:27:15;3.90;;;1.73;;
73575;SDS011;61859;49.204;8.140;2023-06-05T07:29:41;1.73;;;1.30;;
73575;SDS011;61859;49.204;8.140;2023-06-05T07:32:07;2.50;;;1.10;;
73575;SDS011;61859;49.204;8.140;2023-06-05T07:34:33;2.50;;;1.20;;
73575;SDS011;61859;49.204;8.140;2023-06-05T07:37:02;2.70;;;1.30;;
73575;SDS011;61859;49.204;8.140;2023-06-05T07:39:27;1.20;;;1.10;;
73575;SDS011;61859;49.204;8.140;2023-06-05T07:41:53;1.33;;;1.20;;
73575;SDS011;61859;49.204;8.140;2023-06-05T07:44:20;1.47;;;1.37;;
73575;SDS011;61859;49.204;8.140;2023-06-05T07:46:49;1.90;;;1.02;;
73575;SDS011;61859;49.204;8.140;2023-06-05T07:49:15;2.20;;;1.30;;
73575;SDS011;61859;49.204;8.140;2023-06-05T07:51:41;8.68;;;1.48;;
73575;SDS011;61859;49.204;8.140;2023-06-05T07:54:08;1.83;;;1.40;;
73575;SDS011;61859;49.204;8.140;2023-06-05T07:56:35;3.58;;;1.60;;
73575;SDS011;61859;49.204;8.140;2023-06-05T07:59:01;2.72;;;1.30;;
73575;SDS011;61859;49.204;8.140;2023-06-05T08:01:28;4.50;;;1.00;;
73575;SDS011;61859;49.204;8.140;2023-06-05T08:03:55;3.30;;;1.40;;
73575;SDS011;61859;49.204;8.140;2023-06-05T08:06:20;4.40;;;1.30;;
73575;SDS011;61859;49.204;8.140;2023-06-05T08:08:46;1.65;;;1.20;;
73575;SDS011;61859;49.204;8.140;2023-06-05T08:11:12;2.22;;;1.25;;
73575;SDS011;61859;49.204;8.140;2023-06-05T08:13:37;2.53;;;1.30;;
73575;SDS011;61859;49.204;8.140;2023-06-05T08:16:03;1.30;;;1.20;;
73575;SDS011;61859;49.204;8.140;2023-06-05T08:18:32;4.53;;;1.50;;
73575;SDS011;61859;49.204;8.140;2023-06-05T08:20:58;1.75;;;1.33;;
73575;SDS011;61859;49.204;8.140;2023-06-05T08:23:23;8.38;;;1.60;;
73575;SDS011;61859;49.204;8.140;2023-06-05T08:25:49;1.40;;;1.30;;
73575;SDS011;61859;49.204;8.140;2023-06-05T08:28:15;2.22;;;1.40;;
73575;SDS011;61859;49.204;8.140;2023-06-05T08:30:41;1.40;;;1.23;;
73575;SDS011;61859;49.204;8.140;2023-06-05T08:33:07;1.38;;;1.27;;
73575;SDS011;61859;49.204;8.140;2023-06-05T08:35:32;2.15;;;1.20;;
73575;SDS011;61859;49.204;8.140;2023-06-05T08:37:58;2.20;;;1.30;;
73575;SDS011;61859;49.204;8.140;2023-06-05T08:40:25;1.70;;;1.17;;
73575;SDS011;61859;49.204;8.140;2023-06-05T08:42:53;2.08;;;1.73;;
73575;SDS011;61859;49.204;8.140;2023-06-05T08:45:19;12.77;;;2.13;;
73575;SDS011;61859;49.204;8.140;2023-06-05T08:47:45;3.13;;;1.40;;
73575;SDS011;61859;49.204;8.140;2023-06-05T08:50:15;1.38;;;1.27;;
73575;SDS011;61859;49.204;8.140;2023-06-05T08:52:42;1.30;;;1.20;;
73575;SDS011;61859;49.204;8.140;2023-06-05T08:55:08;3.63;;;1.55;;
73575;SDS011;61859;49.204;8.140;2023-06-05T08:57:35;2.72;;;1.27;;
73575;SDS011;61859;49.204;8.140;2023-06-05T09:00:05;3.70;;;1.35;;
73575;SDS011;61859;49.204;8.140;2023-06-05T09:02:35;1.92;;;1.15;;
73575;SDS011;61859;49.204;8.140;2023-06-05T09:05:02;3.53;;;1.60;;
73575;SDS011;61859;49.204;8.140;2023-06-05T09:07:32;4.25;;;1.40;;
73575;SDS011;61859;49.204;8.140;2023-06-05T09:09:58;9.02;;;1.77;;
73575;SDS011;61859;49.204;8.140;2023-06-05T09:12:23;3.67;;;1.67;;
73575;SDS011;61859;49.204;8.140;2023-06-05T09:14:50;1.63;;;1.52;;
73575;SDS011;61859;49.204;8.140;2023-06-05T09:17:17;3.28;;;1.52;;
73575;SDS011;61859;49.204;8.140;2023-06-05T09:19:43;4.45;;;1.65;;
73575;SDS011;61859;49.204;8.140;2023-06-05T09:22:10;1.42;;;1.33;;
73575;SDS011;61859;49.204;8.140;2023-06-05T09:24:37;3.83;;;1.40;;
73575;SDS011;61859;49.204;8.140;2023-06-05T09:27:09;2.65;;;1.50;;
73575;SDS011;61859;49.204;8.140;2023-06-05T09:29:38;2.35;;;1.58;;
73575;SDS011;61859;49.204;8.140;2023-06-05T09:32:09;1.55;;;1.40;;
73575;SDS011;61859;49.204;8.140;2023-06-05T09:34:41;2.03;;;1.73;;
73575;SDS011;61859;49.204;8.140;2023-06-05T09:37:07;3.17;;;1.65;;
73575;SDS011;61859;49.204;8.140;2023-06-05T09:39:35;3.40;;;1.60;;
73575;SDS011;61859;49.204;8.140;2023-06-05T09:42:01;3.92;;;1.80;;
73575;SDS011;61859;49.204;8.140;2023-06-05T09:44:28;3.17;;;1.55;;
73575;SDS011;61859;49.204;8.140;2023-06-05T09:46:55;2.65;;;1.70;;
73575;SDS011;61859;49.204;8.140;2023-06-05T09:49:25;2.90;;;1.73;;
73575;SDS011;61859;49.204;8.140;2023-06-05T09:51:55;4.13;;;2.08;;
73575;SDS011;61859;49.204;8.140;2023-06-05T09:54:22;4.68;;;1.70;;
73575;SDS011;61859;49.204;8.140;2023-06-05T09:56:50;3.63;;;1.70;;
73575;SDS011;61859;49.204;8.140;2023-06-05T09:59:18;3.03;;;2.25;;
73575;SDS011;61859;49.204;8.140;2023-06-05T10:01:47;4.00;;;1.65;;
73575;SDS011;61859;49.204;8.140;2023-06-05T10:04:27;5.43;;;1.98;;
73575;SDS011;61859;49.204;8.140;2023-06-05T10:06:55;1.92;;;1.83;;
73575;SDS011;61859;49.204;8.140;2023-06-05T10:09:25;2.22;;;1.80;;
73575;SDS011;61859;49.204;8.140;2023-06-05T10:11:50;1.63;;;1.52;;
73575;SDS011;61859;49.204;8.140;2023-06-05T10:14:18;3.50;;;2.42;;
73575;SDS011;61859;49.204;8.140;2023-06-05T10:16:46;2.20;;;2.00;;
73575;SDS011;61859;49.204;8.140;2023-06-05T10:19:15;1.90;;;1.70;;
73575;SDS011;61859;49.204;8.140;2023-06-05T10:21:45;2.45;;;1.80;;
73575;SDS011;61859;49.204;8.140;2023-06-05T10:24:15;4.45;;;1.85;;
73575;SDS011;61859;49.204;8.140;2023-06-05T10:35:24;2.85;;;2.00;;
73575;SDS011;61859;49.204;8.140;2023-06-05T10:38:15;1.60;;;1.50;;
73575;SDS011;61859;49.204;8.140;2023-06-05T10:40:53;3.03;;;1.52;;
73575;SDS011;61859;49.204;8.140;2023-06-05T10:45:52;1.85;;;1.73;;
73575;SDS011;61859;49.204;8.140;2023-06-05T10:48:19;1.70;;;1.60;;
73575;SDS011;61859;49.204;8.140;2023-06-05T10:50:45;5.50;;;1.90;;
73575;SDS011;61859;49.204;8.140;2023-06-05T10:56:10;2.65;;;1.63;;
73575;SDS011;61859;49.204;8.140;2023-06-05T10:59:14;2.30;;;2.00;;
73575;SDS011;61859;49.204;8.140;2023-06-05T11:01:39;1.88;;;1.70;;
73575;SDS011;61859;49.204;8.140;2023-06-05T11:04:05;2.10;;;1.55;;
73575;SDS011;61859;49.204;8.140;2023-06-05T11:06:30;1.52;;;1.42;;
73575;SDS011;61859;49.204;8.140;2023-06-05T11:09:09;1.67;;;1.58;;
73575;SDS011;61859;49.204;8.140;2023-06-05T11:14:23;2.08;;;1.88;;
73575;SDS011;61859;49.204;8.140;2023-06-05T11:16:50;1.67;;;1.58;;
73575;SDS011;61859;49.204;8.140;2023-06-05T11:24:29;3.35;;;1.50;;
73575;SDS011;61859;49.204;8.140;2023-06-05T11:26:56;2.00;;;1.90;;
73575;SDS011;61859;49.204;8.140;2023-06-05T11:29:21;2.20;;;2.00;;
73575;SDS011;61859;49.204;8.140;2023-06-05T11:31:50;4.68;;;2.25;;
73575;SDS011;61859;49.204;8.140;2023-06-05T11:34:16;2.20;;;2.00;;
73575;SDS011;61859;49.204;8.140;2023-06-05T11:36:42;2.00;;;1.88;;
73575;SDS011;61859;49.204;8.140;2023-06-05T11:39:09;1.70;;;1.60;;
73575;SDS011;61859;49.204;8.140;2023-06-05T11:41:35;2.20;;;1.85;;
73575;SDS011;61859;49.204;8.140;2023-06-05T11:44:11;2.22;;;1.90;;
73575;SDS011;61859;49.204;8.140;2023-06-05T11:46:41;3.17;;;2.03;;
73575;SDS011;61859;49.204;8.140;2023-06-05T11:49:24;2.10;;;1.90;;
73575;SDS011;61859;49.204;8.140;2023-06-05T11:51:51;2.20;;;2.10;;
73575;SDS011;61859;49.204;8.140;2023-06-05T11:54:32;3.13;;;2.33;;
73575;SDS011;61859;49.204;8.140;2023-06-05T11:57:04;1.80;;;1.70;;
73575;SDS011;61859;49.204;8.140;2023-06-05T11:59:37;3.50;;;1.88;;
73575;SDS011;61859;49.204;8.140;2023-06-05T12:02:03;2.20;;;2.00;;
73575;SDS011;61859;49.204;8.140;2023-06-05T12:04:30;2.42;;;2.00;;
73575;SDS011;61859;49.204;8.140;2023-06-05T12:06:57;2.50;;;2.30;;
73575;SDS011;61859;49.204;8.140;2023-06-05T12:09:24;2.10;;;2.00;;
73575;SDS011;61859;49.204;8.140;2023-06-05T12:11:50;2.20;;;2.10;;
73575;SDS011;61859;49.204;8.140;2023-06-05T12:14:31;5.88;;;2.28;;
73575;SDS011;61859;49.204;8.140;2023-06-05T12:16:58;3.17;;;2.00;;
73575;SDS011;61859;49.204;8.140;2023-06-05T12:19:24;2.20;;;2.00;;
73575;SDS011;61859;49.204;8.140;2023-06-05T12:21:50;2.30;;;2.13;;
73575;SDS011;61859;49.204;8.140;2023-06-05T12:24:23;2.45;;;2.25;;
73575;SDS011;61859;49.204;8.140;2023-06-05T12:26:52;2.88;;;2.60;;
73575;SDS011;61859;49.204;8.140;2023-06-05T12:29:19;3.25;;;2.25;;
73575;SDS011;61859;49.204;8.140;2023-06-05T12:31:46;2.10;;;2.00;;
73575;SDS011;61859;49.204;8.140;2023-06-05T12:34:12;3.63;;;2.03;;
73575;SDS011;61859;49.204;8.140;2023-06-05T12:36:40;4.35;;;1.83;;
73575;SDS011;61859;49.204;8.140;2023-06-05T12:39:09;3.15;;;2.00;;
73575;SDS011;61859;49.204;8.140;2023-06-05T12:41:35;2.22;;;1.67;;
73575;SDS011;61859;49.204;8.140;2023-06-05T12:44:01;3.97;;;2.20;;
73575;SDS011;61859;49.204;8.140;2023-06-05T12:46:29;2.40;;;1.95;;
73575;SDS011;61859;49.204;8.140;2023-06-05T12:48:55;3.30;;;2.03;;
73575;SDS011;61859;49.204;8.140;2023-06-05T12:51:22;2.20;;;2.00;;
73575;SDS011;61859;49.204;8.140;2023-06-05T12:53:48;4.60;;;2.05;;
73575;SDS011;61859;49.204;8.140;2023-06-05T12:56:14;1.98;;;1.83;;
73575;SDS011;61859;49.204;8.140;2023-06-05T12:58:39;2.47;;;2.28;;
73575;SDS011;61859;49.204;8.140;2023-06-05T13:01:05;2.45;;;2.25;;
73575;SDS011;61859;49.204;8.140;2023-06-05T13:03:30;2.30;;;2.10;;
73575;SDS011;61859;49.204;8.140;2023-06-05T13:05:58;2.08;;;1.98;;
73575;SDS011;61859;49.204;8.140;2023-06-05T13:08:23;1.98;;;1.88;;
73575;SDS011;61859;49.204;8.140;2023-06-05T13:10:50;4.47;;;1.92;;
73575;SDS011;61859;49.204;8.140;2023-06-05T13:13:16;2.60;;;2.30;;
73575;SDS011;61859;49.204;8.140;2023-06-05T13:15:41;3.00;;;2.10;;
73575;SDS011;61859;49.204;8.140;2023-06-05T13:18:07;3.45;;;2.90;;
73575;SDS011;61859;49.204;8.140;2023-06-05T13:20:34;2.08;;;1.90;;
73575;SDS011;61859;49.204;8.140;2023-06-05T13:23:00;2.25;;;2.05;;
73575;SDS011;61859;49.204;8.140;2023-06-05T13:25:26;4.15;;;1.98;;
73575;SDS011;61859;49.204;8.140;2023-06-05T13:27:51;2.28;;;2.08;;
73575;SDS011;61859;49.204;8.140;2023-06-05T13:30:17;2.95;;;2.28;;
73575;SDS011;61859;49.204;8.140;2023-06-05T13:32:42;2.25;;;2.05;;
73575;SDS011;61859;49.204;8.140;2023-06-05T13:35:09;2.67;;;2.28;;
73575;SDS011;61859;49.204;8.140;2023-06-05T13:37:36;2.15;;;1.92;;
73575;SDS011;61859;49.204;8.140;2023-06-05T13:40:02;2.20;;;2.00;;
73575;SDS011;61859;49.204;8.140;2023-06-05T13:42:32;2.30;;;2.10;;
73575;SDS011;61859;49.204;8.140;2023-06-05T13:44:58;2.47;;;2.25;;
73575;SDS011;61859;49.204;8.140;2023-06-05T13:47:23;2.58;;;1.92;;
73575;SDS011;61859;49.204;8.140;2023-06-05T13:49:49;3.22;;;2.00;;
73575;SDS011;61859;49.204;8.140;2023-06-05T13:52:15;2.10;;;1.90;;
73575;SDS011;61859;49.204;8.140;2023-06-05T13:54:40;5.75;;;2.22;;
73575;SDS011;61859;49.204;8.140;2023-06-05T13:57:08;2.38;;;1.88;;
73575;SDS011;61859;49.204;8.140;2023-06-05T13:59:34;2.92;;;2.08;;
73575;SDS011;61859;49.204;8.140;2023-06-05T14:01:59;2.10;;;2.00;;
73575;SDS011;61859;49.204;8.140;2023-06-05T14:04:25;2.67;;;2.00;;
73575;SDS011;61859;49.204;8.140;2023-06-05T14:06:50;3.85;;;2.17;;
73575;SDS011;61859;49.204;8.140;2023-06-05T14:09:17;2.05;;;1.90;;
73575;SDS011;61859;49.204;8.140;2023-06-05T14:11:44;2.40;;;2.13;;
73575;SDS011;61859;49.204;8.140;2023-06-05T14:14:10;4.63;;;2.08;;
73575;SDS011;61859;49.204;8.140;2023-06-05T14:16:36;1.92;;;1.70;;
73575;SDS011;61859;49.204;8.140;2023-06-05T14:19:02;1.70;;;1.60;;
73575;SDS011;61859;49.204;8.140;2023-06-05T14:21:27;1.95;;;1.85;;
73575;SDS011;61859;49.204;8.140;2023-06-05T14:23:53;2.15;;;1.98;;
73575;SDS011;61859;49.204;8.140;2023-06-05T14:26:19;2.00;;;1.90;;
73575;SDS011;61859;49.204;8.140;2023-06-05T14:28:46;1.90;;;1.80;;
73575;SDS011;61859;49.204;8.140;2023-06-05T14:31:12;3.03;;;2.00;;
73575;SDS011;61859;49.204;8.140;2023-06-05T14:33:38;1.77;;;1.67;;
73575;SDS011;61859;49.204;8.140;2023-06-05T14:36:03;2.45;;;2.08;;
73575;SDS011;61859;49.204;8.140;2023-06-05T14:38:30;2.67;;;2.03;;
73575;SDS011;61859;49.204;8.140;2023-06-05T14:40:55;1.60;;;1.50;;
73575;SDS011;61859;49.204;8.140;2023-06-05T14:43:22;2.05;;;1.83;;
73575;SDS011;61859;49.204;8.140;2023-06-05T14:45:48;3.25;;;1.90;;
73575;SDS011;61859;49.204;8.140;2023-06-05T14:48:14;2.35;;;2.15;;
73575;SDS011;61859;49.204;8.140;2023-06-05T14:50:39;2.13;;;1.92;;
73575;SDS011;61859;49.204;8.140;2023-06-05T14:53:05;2.17;;;2.00;;
73575;SDS011;61859;49.204;8.140;2023-06-05T14:55:31;1.80;;;1.70;;
73575;SDS011;61859;49.204;8.140;2023-06-05T14:57:56;1.88;;;1.77;;
73575;SDS011;61859;49.204;8.140;2023-06-05T15:00:25;1.92;;;1.83;;
73575;SDS011;61859;49.204;8.140;2023-06-05T15:02:51;2.17;;;1.98;;
73575;SDS011;61859;49.204;8.140;2023-06-05T15:05:16;2.08;;;1.85;;
73575;SDS011;61859;49.204;8.140;2023-06-05T15:07:42;1.83;;;1.73;;
73575;SDS011;61859;49.204;8.140;2023-06-05T15:10:08;2.08;;;1.80;;
73575;SDS011;61859;49.204;8.140;2023-06-05T15:12:37;3.30;;;1.83;;
73575;SDS011;61859;49.204;8.140;2023-06-05T15:15:03;1.73;;;1.60;;